Time;durP1;ratioP1;P1;durP2;ratioP2;P2;SDS_P1;SDS_P2;PMS_P1;PMS_P2;Temp;Humidity;BMP_temperature;BMP_pressure;BME280_temperature;BME280_humidity;BME280_pressure;Samples;Min_cycle;Max_cycle;Signal;HPM_P1;HPM_P2
2022/12/19 00:00:21;;;;;;;363.73;129.43;;;;;;;-0.43;100.00;101743.81;5116435;28;20092;-43
2022/12/19 00:02:46;;;;;;;373.85;134.95;;;;;;;-0.39;100.00;101731.56;5116488;28;20170;-44
2022/12/19 00:05:12;;;;;;;385.42;136.32;;;;;;;-0.30;100.00;101728.03;5116153;28;20020;-48
2022/12/19 00:07:38;;;;;;;379.42;131.27;;;;;;;-0.24;100.00;101713.38;5116274;28;20038;-48
2022/12/19 00:10:04;;;;;;;376.80;135.23;;;;;;;-0.13;100.00;101700.00;5116261;28;20093;-45
2022/12/19 00:12:29;;;;;;;392.05;136.27;;;;;;;-0.04;100.00;101712.56;5115986;28;20098;-47
2022/12/19 00:14:55;;;;;;;396.65;136.38;;;;;;;-0.02;100.00;101713.59;5116039;28;20019;-45
2022/12/19 00:17:20;;;;;;;369.52;132.00;;;;;;;0.01;100.00;101702.84;5115431;28;20467;-44
2022/12/19 00:19:45;;;;;;;377.40;131.73;;;;;;;0.06;100.00;101699.06;5116120;28;20023;-45
2022/12/19 00:22:10;;;;;;;359.90;127.68;;;;;;;0.07;100.00;101718.56;5116291;28;20524;-47
2022/12/19 00:24:36;;;;;;;365.80;128.10;;;;;;;0.08;100.00;101707.66;5115090;28;20055;-47
2022/12/19 00:27:01;;;;;;;355.83;126.25;;;;;;;0.12;100.00;101704.66;5116015;28;20360;-46
2022/12/19 00:29:26;;;;;;;345.45;124.78;;;;;;;0.13;100.00;101698.78;5115988;28;20031;-49
2022/12/19 00:31:52;;;;;;;339.00;126.47;;;;;;;0.11;100.00;101682.59;5114874;28;20092;-48
2022/12/19 00:34:17;;;;;;;335.23;126.35;;;;;;;0.10;100.00;101688.41;5116127;28;20023;-48
2022/12/19 00:36:42;;;;;;;336.92;122.68;;;;;;;0.11;100.00;101674.97;5115754;28;20098;-48
2022/12/19 00:39:09;;;;;;;323.05;123.15;;;;;;;0.13;100.00;101670.91;5115183;28;20015;-48
2022/12/19 00:41:36;;;;;;;314.77;120.95;;;;;;;0.18;100.00;101684.88;5115572;28;20020;-47
2022/12/19 00:44:05;;;;;;;308.88;121.18;;;;;;;0.18;100.00;101674.72;5115755;28;20024;-46
2022/12/19 00:46:31;;;;;;;317.50;118.72;;;;;;;0.17;100.00;101675.50;5115094;28;20483;-45
2022/12/19 00:48:57;;;;;;;312.05;118.65;;;;;;;0.17;100.00;101665.38;5115585;28;20030;-49
2022/12/19 00:51:25;;;;;;;311.60;119.78;;;;;;;0.20;100.00;101668.16;5115524;28;20027;-48
2022/12/19 00:53:53;;;;;;;369.08;140.68;;;;;;;0.21;100.00;101663.97;5114777;28;20030;-48
2022/12/19 00:56:24;;;;;;;293.92;116.60;;;;;;;0.23;100.00;101676.00;5115578;28;20026;-48
2022/12/19 00:58:50;;;;;;;308.42;121.82;;;;;;;0.24;100.00;101660.03;5114886;28;20038;-47
2022/12/19 01:01:22;;;;;;;292.50;114.47;;;;;;;0.29;100.00;101646.09;5114705;28;20384;-48
2022/12/19 01:03:47;;;;;;;293.85;114.88;;;;;;;0.35;100.00;101635.59;5115230;28;20020;-48
2022/12/19 01:06:13;;;;;;;271.80;107.95;;;;;;;0.36;100.00;101636.47;5114629;28;20057;-47
2022/12/19 01:08:38;;;;;;;310.17;124.22;;;;;;;0.39;100.00;101646.88;5114322;28;20019;-48
2022/12/19 01:11:04;;;;;;;287.73;112.30;;;;;;;0.41;100.00;101655.50;5115183;28;20049;-47
2022/12/19 01:13:32;;;;;;;295.15;119.40;;;;;;;0.44;100.00;101645.59;5114353;28;20031;-46
2022/12/19 01:16:04;;;;;;;;;;;;;;;0.47;100.00;101650.94;5115755;28;20035;-48
2022/12/19 01:18:30;;;;;;;280.48;115.88;;;;;;;0.45;100.00;101647.38;5115147;28;19918;-45
2022/12/19 01:20:59;;;;;;;284.45;109.22;;;;;;;0.48;100.00;101640.03;5114276;28;20024;-45
2022/12/19 01:23:24;;;;;;;283.90;118.55;;;;;;;0.48;100.00;101625.69;5115290;28;20102;-48
2022/12/19 01:25:52;;;;;;;276.95;113.25;;;;;;;0.47;100.00;101620.50;5114446;28;20088;-46
2022/12/19 01:28:17;;;;;;;;;;;;;;;0.53;100.00;101615.94;5114784;28;20046;-46
2022/12/19 01:30:43;;;;;;;254.85;102.20;;;;;;;0.48;100.00;101614.69;5114700;28;20316;-46
2022/12/19 01:33:12;;;;;;;265.52;105.05;;;;;;;0.47;100.00;101610.38;5114761;28;20020;-48
2022/12/19 01:35:38;;;;;;;271.17;107.85;;;;;;;0.46;100.00;101618.72;5113983;28;20027;-44
2022/12/19 01:38:04;;;;;;;266.48;105.57;;;;;;;0.42;100.00;101619.25;5114701;28;20068;-48
2022/12/19 01:40:30;;;;;;;259.80;105.60;;;;;;;0.42;100.00;101621.78;5114327;28;20031;-48
2022/12/19 01:42:55;;;;;;;260.67;105.55;;;;;;;0.42;100.00;101621.78;5114336;28;20023;-47
2022/12/19 01:45:25;;;;;;;253.43;103.35;;;;;;;0.44;100.00;101625.31;5114826;28;20102;-47
2022/12/19 01:48:06;;;;;;;256.80;104.80;;;;;;;0.42;100.00;101622.66;5114012;28;20071;-44
2022/12/19 01:50:40;;;;;;;268.17;108.70;;;;;;;0.41;100.00;101618.34;5113696;28;20084;-44
2022/12/19 01:53:10;;;;;;;264.17;105.85;;;;;;;0.41;100.00;101612.38;5114431;28;20024;-47
2022/12/19 01:55:38;;;;;;;272.90;106.03;;;;;;;0.40;100.00;101613.16;5113560;28;20474;-45
2022/12/19 01:58:04;;;;;;;282.15;110.80;;;;;;;0.39;100.00;101612.28;5114387;28;20023;-48
2022/12/19 02:00:29;;;;;;;274.95;108.90;;;;;;;0.39;100.00;101606.28;5114265;28;20124;-47
2022/12/19 02:03:27;;;;;;;284.27;110.97;;;;;;;0.43;100.00;101614.28;5113188;28;20027;-48
2022/12/19 02:05:53;;;;;;;278.73;106.82;;;;;;;0.42;100.00;101609.09;5069028;28;20039;-48
2022/12/19 02:08:20;;;;;;;288.38;114.93;;;;;;;0.43;100.00;101605.81;5113964;28;20081;-48
2022/12/19 02:10:46;;;;;;;297.42;115.82;;;;;;;0.46;100.00;101603.50;5113363;28;20016;-47
2022/12/19 02:13:11;;;;;;;298.90;115.75;;;;;;;0.47;100.00;101600.22;5114070;28;20020;-44
2022/12/19 02:16:07;;;;;;;310.27;116.35;;;;;;;0.48;100.00;101591.84;5113534;28;20081;-45
2022/12/19 02:18:41;;;;;;;306.88;117.05;;;;;;;0.48;100.00;101577.50;5112538;28;20027;-47
2022/12/19 02:21:30;;;;;;;311.65;117.20;;;;;;;0.49;100.00;101573.31;5114177;28;20478;-45
2022/12/19 02:24:29;;;;;;;315.42;115.65;;;;;;;0.50;100.00;101564.94;5112776;28;20523;-47
2022/12/19 02:27:16;;;;;;;318.85;118.53;;;;;;;0.53;100.00;101569.38;5113726;28;20535;-47
2022/12/19 02:29:57;;;;;;;312.55;121.10;;;;;;;0.56;100.00;101569.66;5113325;28;20020;-46
2022/12/19 02:32:54;;;;;;;330.10;120.07;;;;;;;0.57;100.00;101567.25;5113630;28;20032;-46
2022/12/19 02:35:32;;;;;;;331.83;119.45;;;;;;;0.60;100.00;101561.53;5078696;28;20118;-47
2022/12/19 02:38:11;;;;;;;327.98;119.85;;;;;;;0.62;100.00;101557.44;5113068;28;20035;-48
2022/12/19 02:40:56;;;;;;;331.90;122.20;;;;;;;0.67;100.00;101557.84;5113352;28;20047;-46
2022/12/19 02:43:26;;;;;;;317.70;120.65;;;;;;;0.69;100.00;101552.13;5113550;28;20035;-47
2022/12/19 02:45:52;;;;;;;334.67;121.65;;;;;;;0.71;100.00;101545.53;5112778;28;20030;-48
2022/12/19 02:48:18;;;;;;;328.15;119.05;;;;;;;0.74;100.00;101538.16;5113376;28;20363;-48
2022/12/19 02:50:45;;;;;;;321.38;117.78;;;;;;;0.83;100.00;101540.56;5112901;28;20046;-47
2022/12/19 02:53:12;;;;;;;329.23;117.15;;;;;;;0.88;100.00;101534.19;5112834;28;20031;-48
2022/12/19 02:56:15;;;;;;;338.73;122.13;;;;;;;0.92;100.00;101526.06;5113003;28;20037;-45
2022/12/19 02:59:01;;;;;;;342.67;120.80;;;;;;;1.01;100.00;101522.44;5112905;28;20422;-50
2022/12/19 03:01:46;;;;;;;334.95;116.28;;;;;;;1.07;100.00;101517.88;5113178;28;20105;-48
2022/12/19 03:04:26;;;;;;;336.17;116.82;;;;;;;1.12;100.00;101519.13;5113331;28;20031;-47
2022/12/19 03:06:59;;;;;;;336.60;115.85;;;;;;;1.14;100.00;101512.50;5112429;28;20031;-47
2022/12/19 03:09:49;;;;;;;345.00;116.90;;;;;;;1.20;100.00;101512.09;5113371;28;20042;-44
2022/12/19 03:12:25;;;;;;;320.98;112.72;;;;;;;1.26;100.00;101518.53;5112980;28;20026;-45
2022/12/19 03:14:52;;;;;;;339.50;117.55;;;;;;;1.31;100.00;101522.31;5112307;28;20459;-48
2022/12/19 03:17:17;;;;;;;340.92;118.05;;;;;;;1.34;100.00;101515.72;5113235;28;20103;-48
2022/12/19 03:19:43;;;;;;;321.80;112.88;;;;;;;1.36;100.00;101502.38;5112770;28;20141;-46
2022/12/19 03:22:08;;;;;;;339.20;115.68;;;;;;;1.40;100.00;101509.44;5112465;28;20031;-49
2022/12/19 03:24:33;;;;;;;328.50;111.85;;;;;;;1.41;100.00;101513.78;5112836;28;20028;-48
2022/12/19 03:27:08;;;;;;;325.15;110.25;;;;;;;1.46;100.00;101504.84;5112761;28;20066;-49
2022/12/19 03:29:52;;;;;;;339.08;113.38;;;;;;;1.53;100.00;101508.75;5115033;28;20024;-47
2022/12/19 03:32:19;;;;;;;325.02;110.03;;;;;;;1.57;100.00;101509.88;5116962;28;20034;-46
2022/12/19 03:34:52;;;;;;;328.70;111.65;;;;;;;1.60;100.00;101503.38;5116391;28;20023;-47
2022/12/19 03:37:21;;;;;;;315.95;109.82;;;;;;;1.71;100.00;101508.38;5117037;28;20348;-47
2022/12/19 03:39:51;;;;;;;325.15;112.55;;;;;;;1.73;100.00;101496.66;5099961;28;20032;-48
2022/12/19 03:45:05;;;;;;;325.27;107.97;;;;;;;1.85;100.00;101494.16;5097066;28;20043;-49
2022/12/19 03:47:36;;;;;;;326.08;107.53;;;;;;;1.90;100.00;101496.28;5096139;28;20054;-44
2022/12/19 03:50:03;;;;;;;303.58;104.97;;;;;;;1.95;100.00;101489.91;5096185;28;20020;-47
2022/12/19 03:52:40;;;;;;;299.27;103.25;;;;;;;2.03;100.00;101494.66;5096552;28;20046;-49
2022/12/19 03:55:26;;;;;;;299.33;100.15;;;;;;;2.06;100.00;101487.25;5096224;28;20447;-48
2022/12/19 03:57:57;;;;;;;300.58;100.25;;;;;;;2.11;100.00;101485.94;5096157;28;20032;-45
2022/12/19 04:00:24;;;;;;;295.27;99.85;;;;;;;2.26;100.00;101481.09;5095807;28;20465;-49
2022/12/19 04:02:52;;;;;;;290.42;100.82;;;;;;;2.38;100.00;101488.75;5095293;28;20023;-48
2022/12/19 04:05:21;;;;;;;294.48;97.47;;;;;;;2.45;100.00;101474.06;5096411;28;20024;-44
2022/12/19 04:07:49;;;;;;;281.65;98.43;;;;;;;2.56;100.00;101482.44;5095398;28;20376;-47
2022/12/19 04:10:16;;;;;;;;;;;;;;;2.60;100.00;101481.88;5096008;28;20486;-49
2022/12/19 04:12:51;;;;;;;271.00;92.65;;;;;;;2.72;100.00;101473.38;5096072;28;19962;-48
2022/12/19 04:15:20;;;;;;;279.65;91.93;;;;;;;2.81;100.00;101479.09;5095748;28;20428;-48
2022/12/19 04:17:51;;;;;;;269.15;91.57;;;;;;;2.90;100.00;101469.56;5095012;28;20028;-49
2022/12/19 04:20:21;;;;;;;245.88;87.57;;;;;;;2.97;100.00;101471.78;5096008;28;20032;-48
2022/12/19 04:22:53;;;;;;;243.68;84.85;;;;;;;3.06;100.00;101470.66;5095279;28;20024;-48
2022/12/19 04:25:24;;;;;;;242.85;83.78;;;;;;;3.19;100.00;101463.09;5095246;28;20529;-48
2022/12/19 04:27:54;;;;;;;240.20;83.80;;;;;;;3.30;100.00;101461.28;5095533;28;20034;-48
2022/12/19 04:30:20;;;;;;;235.45;81.45;;;;;;;3.36;100.00;101455.75;5095049;28;20502;-46
2022/12/19 04:32:46;;;;;;;214.32;78.25;;;;;;;3.48;100.00;101460.78;5095204;28;20032;-49
2022/12/19 04:35:12;;;;;;;200.93;74.65;;;;;;;3.50;100.00;101444.81;5095629;28;20024;-48
2022/12/19 04:37:38;;;;;;;191.55;75.40;;;;;;;3.54;100.00;101451.88;5094352;28;20019;-48
2022/12/19 04:40:05;;;;;;;188.77;72.38;;;;;;;3.59;100.00;101455.63;5095498;28;20016;-49
2022/12/19 04:42:30;;;;;;;188.85;71.28;;;;;;;3.60;100.00;101446.31;5094595;28;20031;-45
2022/12/19 04:44:55;;;;;;;178.50;67.65;;;;;;;3.67;100.00;101445.06;5094758;28;20028;-49
2022/12/19 04:47:21;;;;;;;160.73;66.95;;;;;;;3.76;100.00;101445.69;5095390;28;20065;-50
2022/12/19 04:49:46;;;;;;;170.88;66.40;;;;;;;3.86;100.00;101445.53;5094737;28;20475;-46
2022/12/19 04:52:11;;;;;;;160.98;63.22;;;;;;;3.90;100.00;101447.50;5094574;28;20475;-45
2022/12/19 04:54:37;;;;;;;150.98;62.53;;;;;;;3.94;100.00;101444.34;5095029;28;20039;-48
2022/12/19 04:57:02;;;;;;;153.35;61.25;;;;;;;3.97;100.00;101442.81;5095076;28;20028;-48
2022/12/19 04:59:27;;;;;;;142.93;60.90;;;;;;;4.00;100.00;101456.59;5094713;28;20387;-48
2022/12/19 05:01:53;;;;;;;143.02;59.53;;;;;;;4.05;100.00;101451.81;5094534;28;20052;-49
2022/12/19 05:04:18;;;;;;;135.43;57.42;;;;;;;4.06;100.00;101451.03;5094782;28;20028;-47
2022/12/19 05:06:43;;;;;;;135.10;57.30;;;;;;;4.16;100.00;101455.97;5094079;28;20039;-46
2022/12/19 05:09:10;;;;;;;135.98;56.75;;;;;;;4.13;100.00;101445.53;5094858;28;20024;-46
2022/12/19 05:11:35;;;;;;;131.38;55.08;;;;;;;4.17;100.00;101442.44;5094544;28;20030;-48
2022/12/19 05:14:01;;;;;;;133.80;56.25;;;;;;;4.23;100.00;101445.34;5094452;28;20029;-49
2022/12/19 05:16:26;;;;;;;115.70;53.40;;;;;;;4.26;100.00;101445.56;5094731;28;20391;-47
2022/12/19 05:18:52;;;;;;;118.45;53.42;;;;;;;4.31;100.00;101442.44;5094248;28;20024;-47
2022/12/19 05:21:18;;;;;;;118.20;53.83;;;;;;;4.32;100.00;101439.09;5094100;28;20024;-49
2022/12/19 05:23:43;;;;;;;119.53;54.05;;;;;;;4.33;100.00;101439.19;5094501;28;20111;-48
2022/12/19 05:26:10;;;;;;;117.07;53.30;;;;;;;4.38;100.00;101437.81;5094494;28;20073;-49
2022/12/19 05:28:35;;;;;;;109.32;51.35;;;;;;;4.38;100.00;101442.06;5093614;28;20356;-49
2022/12/19 05:31:06;;;;;;;113.25;51.92;;;;;;;4.44;100.00;101439.88;5094593;28;20107;-49
2022/12/19 05:33:31;;;;;;;114.45;50.65;;;;;;;4.44;100.00;101432.22;5094128;28;20059;-46
2022/12/19 05:35:56;;;;;;;104.07;49.95;;;;;;;4.51;100.00;101436.94;5093745;28;20060;-48
2022/12/19 05:38:22;;;;;;;109.15;50.15;;;;;;;4.55;100.00;101431.22;5094578;28;20460;-48
2022/12/19 05:40:47;;;;;;;106.55;51.17;;;;;;;4.59;100.00;101430.63;5093466;28;20113;-48
2022/12/19 05:43:12;;;;;;;107.35;49.88;;;;;;;4.59;100.00;101433.19;5094386;28;20027;-49
2022/12/19 05:45:38;;;;;;;100.00;48.05;;;;;;;4.63;100.00;101430.84;5093822;28;20063;-49
2022/12/19 05:48:04;;;;;;;100.80;47.75;;;;;;;4.66;100.00;101419.16;5093671;28;20517;-49
2022/12/19 05:50:29;;;;;;;96.57;46.85;;;;;;;4.67;100.00;101428.56;5094079;28;20024;-48
2022/12/19 05:52:55;;;;;;;86.13;44.25;;;;;;;4.77;100.00;101412.16;5092782;28;20016;-49
2022/12/19 05:55:20;;;;;;;95.72;45.15;;;;;;;4.84;100.00;101426.19;5093694;28;20145;-48
2022/12/19 05:57:45;;;;;;;84.70;42.47;;;;;;;4.85;100.00;101425.41;5093779;28;20028;-47
2022/12/19 06:00:11;;;;;;;83.22;41.03;;;;;;;4.81;100.00;101424.31;5093717;28;20103;-49
2022/12/19 06:02:36;;;;;;;82.78;40.85;;;;;;;4.83;100.00;101417.66;5093043;28;20085;-48
2022/12/19 06:05:02;;;;;;;86.68;42.10;;;;;;;4.84;100.00;101427.09;5093845;28;20463;-45
2022/12/19 06:07:28;;;;;;;106.07;50.78;;;;;;;4.88;100.00;101403.50;5093407;28;20086;-50
2022/12/19 06:09:53;;;;;;;83.05;44.70;;;;;;;4.96;100.00;101416.75;5093098;28;20073;-48
2022/12/19 06:12:19;;;;;;;77.85;41.17;;;;;;;5.00;100.00;101422.94;5093829;28;20020;-48
2022/12/19 06:14:44;;;;;;;77.80;39.60;;;;;;;5.02;100.00;101424.78;5093312;28;20027;-49
2022/12/19 06:17:09;;;;;;;96.65;49.88;;;;;;;5.02;100.00;101423.88;5093164;28;20020;-49
2022/12/19 06:19:34;;;;;;;77.82;40.47;;;;;;;5.03;100.00;101429.09;5093135;28;20046;-48
2022/12/19 06:22:00;;;;;;;79.18;39.92;;;;;;;5.06;100.00;101425.84;5093350;28;20063;-44
2022/12/19 06:24:25;;;;;;;69.82;39.80;;;;;;;5.09;100.00;101420.94;5092977;28;20028;-45
2022/12/19 06:26:50;;;;;;;77.45;39.17;;;;;;;5.11;100.00;101427.91;5093078;28;20039;-45
2022/12/19 06:29:16;;;;;;;67.50;36.38;;;;;;;5.18;100.00;101425.72;5093310;28;20400;-49
2022/12/19 06:31:41;;;;;;;68.63;36.28;;;;;;;5.17;100.00;101429.94;5092550;28;20024;-49
2022/12/19 06:34:09;;;;;;;65.68;35.35;;;;;;;5.17;100.00;101444.41;5093296;28;20103;-45
2022/12/19 06:36:34;;;;;;;69.40;35.75;;;;;;;5.20;100.00;101449.69;5092706;28;20024;-48
2022/12/19 06:39:00;;;;;;;67.15;35.13;;;;;;;5.20;100.00;101437.81;5092650;28;20020;-49
2022/12/19 06:44:12;;;;;;;71.88;36.55;;;;;;;5.28;100.00;101445.94;5092603;28;20067;-47
2022/12/19 06:46:38;;;;;;;69.35;36.50;;;;;;;5.29;100.00;101440.00;5092747;28;20467;-47
2022/12/19 06:49:03;;;;;;;60.60;34.78;;;;;;;5.34;100.00;101437.75;5092861;28;20157;-47
2022/12/19 06:51:30;;;;;;;70.00;34.45;;;;;;;5.33;100.00;101435.97;5092387;28;20036;-49
2022/12/19 06:53:55;;;;;;;67.75;35.53;;;;;;;5.33;100.00;101448.75;5092999;28;20073;-49
2022/12/19 06:56:20;;;;;;;63.58;36.65;;;;;;;5.35;100.00;101434.41;5092877;28;20020;-49
2022/12/19 06:58:47;;;;;;;63.33;35.85;;;;;;;5.35;100.00;101454.84;5092182;28;20031;-49
2022/12/19 07:01:17;;;;;;;68.68;35.28;;;;;;;5.35;100.00;101445.50;5092639;28;20043;-50
2022/12/19 07:03:45;;;;;;;66.72;36.55;;;;;;;5.37;100.00;101438.81;5091946;28;20024;-47
2022/12/19 07:06:10;;;;;;;69.30;35.95;;;;;;;5.35;100.00;101435.28;5092411;28;20016;-49
2022/12/19 07:08:35;;;;;;;63.72;34.85;;;;;;;5.39;100.00;101444.88;5092501;28;20024;-49
2022/12/19 07:11:01;;;;;;;59.78;34.90;;;;;;;5.39;100.00;101421.00;5092514;28;20016;-47
2022/12/19 07:13:26;;;;;;;73.47;36.70;;;;;;;5.38;100.00;101443.13;5092167;28;20020;-49
2022/12/19 07:15:55;;;;;;;68.45;36.65;;;;;;;5.42;100.00;101442.53;5092373;28;20027;-47
2022/12/19 07:18:21;;;;;;;65.68;36.25;;;;;;;5.44;100.00;101435.81;5092491;28;20577;-49
2022/12/19 07:20:46;;;;;;;64.68;35.42;;;;;;;5.42;100.00;101439.97;5092053;28;20223;-48
2022/12/19 07:23:15;;;;;;;63.92;35.10;;;;;;;5.48;100.00;101438.59;5092863;28;20382;-49
2022/12/19 07:25:40;;;;;;;69.15;35.58;;;;;;;5.48;100.00;101446.25;5092237;28;20032;-48
2022/12/19 07:28:06;;;;;;;62.88;35.28;;;;;;;5.48;100.00;101439.44;5092094;28;20032;-47
2022/12/19 07:30:32;;;;;;;65.88;34.10;;;;;;;5.51;100.00;101444.72;5092170;28;20039;-46
2022/12/19 07:32:57;;;;;;;62.78;34.92;;;;;;;5.51;100.00;101442.19;5092584;28;20027;-50
2022/12/19 07:35:23;;;;;;;63.08;33.42;;;;;;;5.55;100.00;101446.72;5092343;28;20024;-48
2022/12/19 07:37:49;;;;;;;66.80;33.50;;;;;;;5.58;100.00;101446.88;5092349;28;20503;-46
2022/12/19 07:40:15;;;;;;;55.10;32.40;;;;;;;5.59;100.00;101451.22;5092033;28;20027;-48
2022/12/19 07:42:40;;;;;;;66.72;38.33;;;;;;;5.56;100.00;101451.00;5092193;28;20533;-49
2022/12/19 07:45:06;;;;;;;58.70;31.95;;;;;;;5.60;100.00;101452.97;5092115;28;20028;-49
2022/12/19 07:47:32;;;;;;;55.83;30.38;;;;;;;5.57;100.00;101463.00;5091483;28;20112;-45
2022/12/19 07:49:58;;;;;;;54.83;30.45;;;;;;;5.60;100.00;101459.75;5092304;28;20434;-49
2022/12/19 07:52:23;;;;;;;49.33;28.17;;;;;;;5.58;100.00;101461.34;5092329;28;20477;-48
2022/12/19 07:54:48;;;;;;;49.67;29.02;;;;;;;5.61;100.00;101452.16;5091594;28;20028;-49
2022/12/19 07:57:13;;;;;;;49.92;28.13;;;;;;;5.64;100.00;101468.50;5092287;28;20085;-49
2022/12/19 07:59:39;;;;;;;57.90;34.25;;;;;;;5.67;100.00;101468.66;5091625;28;20467;-44
2022/12/19 08:02:04;;;;;;;52.05;29.02;;;;;;;5.65;100.00;101470.25;5091613;28;20044;-49
2022/12/19 08:04:30;;;;;;;47.38;27.23;;;;;;;5.68;100.00;101475.56;5092564;28;20532;-49
2022/12/19 08:06:55;;;;;;;54.08;29.27;;;;;;;5.69;100.00;101477.31;5091767;28;20024;-49
2022/12/19 08:09:20;;;;;;;42.17;25.45;;;;;;;5.72;100.00;101474.94;5091825;28;20016;-48
2022/12/19 08:11:45;;;;;;;51.63;29.05;;;;;;;5.75;100.00;101477.69;5091885;28;20028;-49
2022/12/19 08:14:11;;;;;;;59.05;34.13;;;;;;;5.79;100.00;101479.63;5091949;28;20379;-45
2022/12/19 08:16:36;;;;;;;49.25;26.70;;;;;;;5.83;100.00;101475.59;5093424;28;20034;-48
2022/12/19 08:19:02;;;;;;;48.78;27.83;;;;;;;5.83;100.00;101483.25;5095969;28;20051;-48
2022/12/19 08:21:28;;;;;;;45.88;27.02;;;;;;;5.85;100.00;101485.13;5095786;28;20088;-48
2022/12/19 08:23:53;;;;;;;42.83;25.42;;;;;;;5.86;100.00;101479.22;5095195;28;20103;-48
2022/12/19 08:26:23;;;;;;;45.67;26.48;;;;;;;5.89;100.00;101474.28;5095789;28;20379;-46
2022/12/19 08:28:51;;;;;;;43.90;24.48;;;;;;;5.93;100.00;101465.97;5095197;28;20031;-48
2022/12/19 08:31:17;;;;;;;50.42;24.85;;;;;;;6.00;100.00;101468.94;5095134;28;20032;-45
2022/12/19 08:33:42;;;;;;;37.40;23.75;;;;;;;6.05;100.00;101483.75;5095381;28;20074;-46
2022/12/19 08:36:14;;;;;;;46.63;25.88;;;;;;;6.05;100.00;101478.63;5095453;28;20387;-49
2022/12/19 08:38:40;;;;;;;42.50;23.55;;;;;;;6.04;100.00;101482.00;5094674;28;20020;-49
2022/12/19 08:41:05;;;;;;;42.85;25.20;;;;;;;6.05;100.00;101483.75;5095191;28;20020;-48
2022/12/19 08:43:31;;;;;;;62.83;31.98;;;;;;;6.05;100.00;101493.09;5095068;28;20056;-45
2022/12/19 08:45:57;;;;;;;42.10;24.63;;;;;;;6.08;100.00;101493.28;5095233;28;20024;-48
2022/12/19 08:48:23;;;;;;;41.88;25.27;;;;;;;6.12;100.00;101489.22;5094951;28;20028;-49
2022/12/19 08:50:53;;;;;;;43.75;24.55;;;;;;;6.11;100.00;101493.47;5094467;28;20028;-48
2022/12/19 08:53:20;;;;;;;38.17;22.23;;;;;;;6.16;100.00;101486.94;5095290;28;20401;-48
2022/12/19 08:55:46;;;;;;;45.38;22.88;;;;;;;6.18;100.00;101480.22;5094628;28;20028;-45
2022/12/19 08:58:11;;;;;;;39.63;22.42;;;;;;;6.21;100.00;101485.53;5094557;28;20471;-49
2022/12/19 09:00:37;;;;;;;39.72;23.02;;;;;;;6.22;100.00;101487.31;5094740;28;20058;-47
2022/12/19 09:03:02;;;;;;;42.28;23.25;;;;;;;6.26;100.00;101484.13;5095061;28;20024;-46
2022/12/19 09:05:27;;;;;;;37.25;21.27;;;;;;;6.29;100.00;101483.41;5094381;28;20066;-47
2022/12/19 09:07:53;;;;;;;39.72;21.73;;;;;;;6.34;100.00;101493.91;5094594;28;20028;-49
2022/12/19 09:10:18;;;;;;;35.05;21.23;;;;;;;6.39;100.00;101489.91;5094662;28;20027;-47
2022/12/19 09:12:44;;;;;;;37.42;20.85;;;;;;;6.43;100.00;101497.88;5093883;28;20074;-48
2022/12/19 09:15:09;;;;;;;39.35;19.95;;;;;;;6.43;100.00;101492.75;5095031;28;20024;-47
2022/12/19 09:17:35;;;;;;;45.17;25.70;;;;;;;6.43;100.00;101497.88;5094241;28;20028;-47
2022/12/19 09:20:00;;;;;;;38.25;18.77;;;;;;;6.54;100.00;101501.03;5094327;28;20028;-48
2022/12/19 09:22:25;;;;;;;38.42;20.95;;;;;;;6.55;100.00;101500.25;5094738;28;20024;-48
2022/12/19 09:24:50;;;;;;;40.33;20.92;;;;;;;6.55;100.00;101502.81;5094033;28;20020;-49
2022/12/19 09:27:16;;;;;;;36.58;21.45;;;;;;;6.60;100.00;101505.63;5093693;28;20559;-47
2022/12/19 09:29:42;;;;;;;37.13;24.00;;;;;;;6.59;100.00;101498.75;5094185;28;20032;-48
2022/12/19 09:32:07;;;;;;;36.38;18.95;;;;;;;6.57;100.00;101496.09;5094574;28;20028;-45
2022/12/19 09:34:33;;;;;;;40.90;19.33;;;;;;;6.56;100.00;101504.56;5093652;28;20035;-44
2022/12/19 09:36:58;;;;;;;33.40;19.75;;;;;;;6.51;100.00;101508.56;5094433;28;20095;-45
2022/12/19 09:39:24;;;;;;;34.13;20.60;;;;;;;6.52;100.00;101505.22;5094145;28;20078;-48
2022/12/19 09:41:55;;;;;;;39.80;21.10;;;;;;;6.52;100.00;101497.53;5093319;28;20016;-47
2022/12/19 09:44:39;;;;;;;32.78;20.25;;;;;;;6.53;100.00;101494.16;5094234;28;20028;-48
2022/12/19 09:47:13;;;;;;;42.90;21.25;;;;;;;6.57;100.00;101497.75;5093752;28;20052;-45
2022/12/19 09:49:42;;;;;;;32.70;19.45;;;;;;;6.64;100.00;101497.31;5094013;28;20020;-47
2022/12/19 09:52:36;;;;;;;31.90;18.92;;;;;;;6.68;100.00;101489.00;5093784;28;20028;-46
2022/12/19 09:55:03;;;;;;;37.05;19.10;;;;;;;6.77;100.00;101493.75;5089305;28;20511;-44
2022/12/19 09:57:43;;;;;;;40.42;22.00;;;;;;;6.84;100.00;101501.00;5094087;28;20024;-48
2022/12/19 10:00:14;;;;;;;33.97;21.45;;;;;;;6.91;100.00;101503.09;5093479;28;20437;-47
2022/12/19 10:02:48;;;;;;;36.00;19.38;;;;;;;7.02;100.00;101487.41;5092802;28;20462;-46
2022/12/19 10:05:30;;;;;;;34.70;20.17;;;;;;;7.08;100.00;101513.38;5093545;28;20387;-44
2022/12/19 10:07:55;;;;;;;38.67;18.20;;;;;;;7.13;100.00;101513.63;5093332;28;20039;-47
2022/12/19 10:11:01;;;;;;;32.30;18.98;;;;;;;7.13;100.00;101506.84;5093536;28;20028;-45
2022/12/19 10:13:50;;;;;;;33.73;18.00;;;;;;;7.18;100.00;101513.09;5028057;28;20036;-46
2022/12/19 10:16:23;;;;;;;36.20;18.48;;;;;;;7.18;100.00;101502.84;5093250;28;20278;-48
2022/12/19 10:19:04;;;;;;;31.58;16.88;;;;;;;7.18;100.00;101500.28;5093378;28;20051;-47
2022/12/19 10:21:46;;;;;;;40.00;21.35;;;;;;;7.19;100.00;101509.72;5093176;28;20375;-47
2022/12/19 10:24:26;;;;;;;43.65;23.20;;;;;;;7.19;100.00;101501.13;5093127;28;20020;-48
2022/12/19 10:27:10;;;;;;;37.10;21.77;;;;;;;7.23;100.00;101506.53;5092739;28;20043;-47
2022/12/19 10:29:47;;;;;;;33.30;18.75;;;;;;;7.22;100.00;101504.75;5092615;28;20021;-46
2022/12/19 10:32:48;;;;;;;28.30;16.35;;;;;;;7.22;100.00;101507.31;5093605;28;20031;-49
2022/12/19 10:35:16;;;;;;;37.15;17.42;;;;;;;7.24;100.00;101503.16;5048205;28;20464;-48
2022/12/19 10:38:10;;;;;;;28.73;17.10;;;;;;;7.25;100.00;101514.28;5092377;28;20115;-47
2022/12/19 10:40:47;;;;;;;29.05;16.60;;;;;;;7.22;100.00;101511.59;5092734;28;20104;-47
2022/12/19 10:43:34;;;;;;;29.00;17.20;;;;;;;7.16;100.00;101517.25;5092851;28;20107;-48
2022/12/19 10:46:10;;;;;;;28.23;17.13;;;;;;;7.12;100.00;101512.75;5093149;28;20024;-48
2022/12/19 10:48:35;;;;;;;28.33;16.40;;;;;;;7.09;100.00;101508.34;5092453;28;20478;-46
2022/12/19 10:51:00;;;;;;;35.50;18.55;;;;;;;7.07;100.00;101515.06;5092670;28;20166;-48
2022/12/19 10:53:30;;;;;;;33.00;18.48;;;;;;;7.02;100.00;101510.47;5093080;28;20484;-48
2022/12/19 10:56:01;;;;;;;37.28;18.25;;;;;;;7.02;100.00;101523.31;5092758;28;20031;-46
2022/12/19 10:58:32;;;;;;;30.17;18.02;;;;;;;6.96;100.00;101512.72;5092473;28;20032;-49
2022/12/19 11:01:18;;;;;;;36.17;19.70;;;;;;;6.97;100.00;101507.69;5092737;28;20123;-48
2022/12/19 11:03:50;;;;;;;34.20;20.50;;;;;;;6.96;100.00;101511.03;5092792;28;20024;-49
2022/12/19 11:06:36;;;;;;;33.40;19.52;;;;;;;6.98;100.00;101509.44;5092482;28;20027;-49
2022/12/19 11:09:38;;;;;;;30.92;18.00;;;;;;;7.01;100.00;101493.34;5092700;28;20028;-49
2022/12/19 11:12:11;;;;;;;33.90;19.05;;;;;;;6.96;100.00;101495.66;5010451;28;20030;-50
2022/12/19 11:14:40;;;;;;;38.15;21.90;;;;;;;6.97;100.00;101504.22;5080526;28;20028;-45
2022/12/19 11:17:23;;;;;;;30.95;19.55;;;;;;;6.96;100.00;101490.53;5092728;28;20028;-46
2022/12/19 11:19:48;;;;;;;34.40;20.58;;;;;;;6.94;100.00;101489.56;5091815;28;20055;-46